sensor_id;sensor_type;location;lat;lon;timestamp;pressure;altitude;pressure_sealevel;temperature;humidity
76086;BME280;64791;0.000;0.000;2024-02-26T00:02:23;93375.16;;;4.88;70.63
76086;BME280;64791;0.000;0.000;2024-02-26T00:04:49;93379.88;;;4.88;70.84
76086;BME280;64791;0.000;0.000;2024-02-26T00:07:15;93374.19;;;4.86;71.46
76086;BME280;64791;0.000;0.000;2024-02-26T00:09:41;93372.16;;;4.86;71.57
76086;BME280;64791;0.000;0.000;2024-02-26T00:12:06;93383.09;;;4.86;71.48
76086;BME280;64791;0.000;0.000;2024-02-26T00:14:32;93375.16;;;4.88;71.54
76086;BME280;64791;0.000;0.000;2024-02-26T00:16:57;93378.38;;;4.87;71.65
76086;BME280;64791;0.000;0.000;2024-02-26T00:19:23;93361.78;;;4.85;71.79
76086;BME280;64791;0.000;0.000;2024-02-26T00:21:49;93368.50;;;4.84;71.45
76086;BME280;64791;0.000;0.000;2024-02-26T00:24:14;93361.25;;;4.86;71.61
76086;BME280;64791;0.000;0.000;2024-02-26T00:26:40;93358.50;;;4.86;71.57
76086;BME280;64791;0.000;0.000;2024-02-26T00:29:05;93352.34;;;4.86;71.59
76086;BME280;64791;0.000;0.000;2024-02-26T00:31:31;93348.31;;;4.87;71.65
76086;BME280;64791;0.000;0.000;2024-02-26T00:33:56;93352.53;;;4.88;71.56
76086;BME280;64791;0.000;0.000;2024-02-26T00:36:22;93346.56;;;4.89;71.63
76086;BME280;64791;0.000;0.000;2024-02-26T00:38:48;93352.00;;;4.89;71.30
76086;BME280;64791;0.000;0.000;2024-02-26T00:41:16;93347.28;;;4.90;71.48
76086;BME280;64791;0.000;0.000;2024-02-26T00:43:42;93346.75;;;4.91;71.30
76086;BME280;64791;0.000;0.000;2024-02-26T00:46:08;93350.03;;;4.90;71.34
76086;BME280;64791;0.000;0.000;2024-02-26T00:48:34;93348.75;;;4.91;71.49
76086;BME280;64791;0.000;0.000;2024-02-26T00:51:00;93341.81;;;4.90;71.52
76086;BME280;64791;0.000;0.000;2024-02-26T00:53:26;93348.03;;;4.90;71.64
76086;BME280;64791;0.000;0.000;2024-02-26T00:55:51;93356.72;;;4.89;71.38
76086;BME280;64791;0.000;0.000;2024-02-26T00:58:17;93348.53;;;4.89;70.98
76086;BME280;64791;0.000;0.000;2024-02-26T01:00:44;93343.06;;;4.89;71.13
76086;BME280;64791;0.000;0.000;2024-02-26T01:03:10;93341.63;;;4.88;71.11
76086;BME280;64791;0.000;0.000;2024-02-26T01:05:36;93337.41;;;4.87;71.31
76086;BME280;64791;0.000;0.000;2024-02-26T01:08:03;93334.66;;;4.87;71.27
76086;BME280;64791;0.000;0.000;2024-02-26T01:10:29;93328.47;;;4.86;71.34
76086;BME280;64791;0.000;0.000;2024-02-26T01:12:55;93321.53;;;4.85;71.07
76086;BME280;64791;0.000;0.000;2024-02-26T01:15:20;93329.00;;;4.85;71.12
76086;BME280;64791;0.000;0.000;2024-02-26T01:17:49;93333.22;;;4.86;71.30
76086;BME280;64791;0.000;0.000;2024-02-26T01:20:16;93325.03;;;4.86;71.13
76086;BME280;64791;0.000;0.000;2024-02-26T01:22:42;93324.47;;;4.87;71.23
76086;BME280;64791;0.000;0.000;2024-02-26T01:25:07;93329.00;;;4.85;71.48
76086;BME280;64791;0.000;0.000;2024-02-26T01:27:35;93329.50;;;4.83;71.80
76086;BME280;64791;0.000;0.000;2024-02-26T01:30:02;93325.53;;;4.84;71.46
76086;BME280;64791;0.000;0.000;2024-02-26T01:32:29;93329.00;;;4.85;71.69
76086;BME280;64791;0.000;0.000;2024-02-26T01:34:55;93322.06;;;4.84;71.87
76086;BME280;64791;0.000;0.000;2024-02-26T01:37:21;93321.31;;;4.83;71.33
76086;BME280;64791;0.000;0.000;2024-02-26T01:39:47;93319.34;;;4.84;71.62
76086;BME280;64791;0.000;0.000;2024-02-26T01:42:13;93313.13;;;4.83;71.43
76086;BME280;64791;0.000;0.000;2024-02-26T01:44:38;93321.31;;;4.83;71.53
76086;BME280;64791;0.000;0.000;2024-02-26T01:47:05;93313.44;;;4.80;71.30
76086;BME280;64791;0.000;0.000;2024-02-26T01:49:33;93318.38;;;4.81;71.73
76086;BME280;64791;0.000;0.000;2024-02-26T01:52:00;93310.91;;;4.82;71.58
76086;BME280;64791;0.000;0.000;2024-02-26T01:54:27;93313.88;;;4.84;71.63
76086;BME280;64791;0.000;0.000;2024-02-26T01:56:53;93314.09;;;4.86;71.77
76086;BME280;64791;0.000;0.000;2024-02-26T01:59:19;93306.59;;;4.86;71.69
76086;BME280;64791;0.000;0.000;2024-02-26T02:01:46;93302.09;;;4.89;71.37
76086;BME280;64791;0.000;0.000;2024-02-26T02:04:13;93304.00;;;4.94;71.13
76086;BME280;64791;0.000;0.000;2024-02-26T02:06:40;93294.75;;;4.97;71.54
76086;BME280;64791;0.000;0.000;2024-02-26T02:09:07;93297.69;;;4.99;71.60
76086;BME280;64791;0.000;0.000;2024-02-26T02:11:33;93296.22;;;4.98;71.83
76086;BME280;64791;0.000;0.000;2024-02-26T02:13:59;93298.94;;;4.98;71.85
76086;BME280;64791;0.000;0.000;2024-02-26T02:16:25;93297.50;;;4.97;71.34
76086;BME280;64791;0.000;0.000;2024-02-26T02:18:51;93301.47;;;4.96;71.67
76086;BME280;64791;0.000;0.000;2024-02-26T02:21:16;93304.00;;;4.94;71.91
76086;BME280;64791;0.000;0.000;2024-02-26T02:23:42;93299.06;;;4.92;71.69
76086;BME280;64791;0.000;0.000;2024-02-26T02:26:12;93303.59;;;4.90;71.71
76086;BME280;64791;0.000;0.000;2024-02-26T02:28:39;93299.38;;;4.89;71.47
76086;BME280;64791;0.000;0.000;2024-02-26T02:31:05;93300.63;;;4.88;71.80
76086;BME280;64791;0.000;0.000;2024-02-26T02:33:30;93305.38;;;4.87;71.80
76086;BME280;64791;0.000;0.000;2024-02-26T02:35:56;93313.34;;;4.85;71.66
76086;BME280;64791;0.000;0.000;2024-02-26T02:38:23;93313.88;;;4.84;72.18
76086;BME280;64791;0.000;0.000;2024-02-26T02:40:54;93315.34;;;4.85;71.75
76086;BME280;64791;0.000;0.000;2024-02-26T02:43:20;93309.13;;;4.84;71.36
76086;BME280;64791;0.000;0.000;2024-02-26T02:45:45;93315.53;;;4.87;71.92
76086;BME280;64791;0.000;0.000;2024-02-26T02:48:11;93311.56;;;4.88;72.15
76086;BME280;64791;0.000;0.000;2024-02-26T02:50:37;93307.06;;;4.90;71.85
76086;BME280;64791;0.000;0.000;2024-02-26T02:53:03;93305.03;;;4.91;71.70
76086;BME280;64791;0.000;0.000;2024-02-26T02:55:29;93303.06;;;4.91;72.01
76086;BME280;64791;0.000;0.000;2024-02-26T02:57:55;93306.53;;;4.92;71.95
76086;BME280;64791;0.000;0.000;2024-02-26T03:00:20;93310.00;;;4.92;71.74
76086;BME280;64791;0.000;0.000;2024-02-26T03:02:48;93311.25;;;4.91;72.15
76086;BME280;64791;0.000;0.000;2024-02-26T03:05:14;93311.25;;;4.91;72.11
76086;BME280;64791;0.000;0.000;2024-02-26T03:07:40;93316.72;;;4.91;72.44
76086;BME280;64791;0.000;0.000;2024-02-26T03:10:06;93322.91;;;4.92;72.06
76086;BME280;64791;0.000;0.000;2024-02-26T03:12:32;93323.66;;;4.92;71.93
76086;BME280;64791;0.000;0.000;2024-02-26T03:14:57;93316.72;;;4.91;72.36
76086;BME280;64791;0.000;0.000;2024-02-26T03:17:23;93315.25;;;4.90;72.07
76086;BME280;64791;0.000;0.000;2024-02-26T03:19:52;93312.53;;;4.90;72.15
76086;BME280;64791;0.000;0.000;2024-02-26T03:22:19;93316.72;;;4.91;71.87
76086;BME280;64791;0.000;0.000;2024-02-26T03:24:46;93312.72;;;4.92;72.26
76086;BME280;64791;0.000;0.000;2024-02-26T03:27:11;93306.72;;;4.94;72.48
76086;BME280;64791;0.000;0.000;2024-02-26T03:29:37;93300.72;;;4.95;71.87
76086;BME280;64791;0.000;0.000;2024-02-26T03:32:03;93308.41;;;4.97;72.04
76086;BME280;64791;0.000;0.000;2024-02-26T03:34:29;93305.69;;;4.97;72.03
76086;BME280;64791;0.000;0.000;2024-02-26T03:36:56;93309.13;;;4.97;71.82
76086;BME280;64791;0.000;0.000;2024-02-26T03:39:21;93315.88;;;4.96;72.13
76086;BME280;64791;0.000;0.000;2024-02-26T03:41:47;93310.41;;;4.96;72.35
76086;BME280;64791;0.000;0.000;2024-02-26T03:44:13;93310.91;;;4.95;72.28
76086;BME280;64791;0.000;0.000;2024-02-26T03:46:39;93308.72;;;4.93;71.98
76086;BME280;64791;0.000;0.000;2024-02-26T03:49:04;93300.31;;;4.91;72.26
76086;BME280;64791;0.000;0.000;2024-02-26T03:51:30;93302.84;;;4.89;72.23
76086;BME280;64791;0.000;0.000;2024-02-26T03:53:57;93299.16;;;4.87;72.07
76086;BME280;64791;0.000;0.000;2024-02-26T03:56:25;93301.69;;;4.85;72.44
76086;BME280;64791;0.000;0.000;2024-02-26T03:58:50;93305.44;;;4.82;72.35
76086;BME280;64791;0.000;0.000;2024-02-26T04:01:16;93299.53;;;4.78;72.40
76086;BME280;64791;0.000;0.000;2024-02-26T04:03:41;93300.59;;;4.75;72.44
76086;BME280;64791;0.000;0.000;2024-02-26T04:06:11;93305.31;;;4.74;72.35
76086;BME280;64791;0.000;0.000;2024-02-26T04:08:41;93298.41;;;4.73;72.50
76086;BME280;64791;0.000;0.000;2024-02-26T04:11:06;93295.88;;;4.75;72.31
76086;BME280;64791;0.000;0.000;2024-02-26T04:13:33;93299.31;;;4.76;72.39
76086;BME280;64791;0.000;0.000;2024-02-26T04:15:59;93299.53;;;4.78;72.20
76086;BME280;64791;0.000;0.000;2024-02-26T04:18:26;93299.78;;;4.80;72.14
76086;BME280;64791;0.000;0.000;2024-02-26T04:20:52;93303.44;;;4.82;72.42
76086;BME280;64791;0.000;0.000;2024-02-26T04:23:17;93289.28;;;4.84;72.57
76086;BME280;64791;0.000;0.000;2024-02-26T04:25:43;93283.31;;;4.85;72.85
76086;BME280;64791;0.000;0.000;2024-02-26T04:28:08;93284.75;;;4.86;72.46
76086;BME280;64791;0.000;0.000;2024-02-26T04:30:34;93286.78;;;4.86;72.66
76086;BME280;64791;0.000;0.000;2024-02-26T04:33:00;93284.75;;;4.86;72.62
76086;BME280;64791;0.000;0.000;2024-02-26T04:35:25;93277.59;;;4.83;72.37
76086;BME280;64791;0.000;0.000;2024-02-26T04:37:51;93280.13;;;4.81;72.49
76086;BME280;64791;0.000;0.000;2024-02-26T04:40:17;93286.63;;;4.78;72.64
76086;BME280;64791;0.000;0.000;2024-02-26T04:42:43;93281.16;;;4.78;72.47
76086;BME280;64791;0.000;0.000;2024-02-26T04:45:09;93286.84;;;4.80;72.62
76086;BME280;64791;0.000;0.000;2024-02-26T04:47:35;93298.22;;;4.84;72.28
76086;BME280;64791;0.000;0.000;2024-02-26T04:50:01;93289.28;;;4.84;72.36
76086;BME280;64791;0.000;0.000;2024-02-26T04:52:27;93294.75;;;4.84;72.86
76086;BME280;64791;0.000;0.000;2024-02-26T04:54:53;93300.69;;;4.82;72.05
76086;BME280;64791;0.000;0.000;2024-02-26T04:57:20;93301.44;;;4.83;72.41
76086;BME280;64791;0.000;0.000;2024-02-26T04:59:46;93295.78;;;4.81;72.60
76086;BME280;64791;0.000;0.000;2024-02-26T05:02:12;93299.25;;;4.81;72.56
76086;BME280;64791;0.000;0.000;2024-02-26T05:04:38;93301.56;;;4.77;72.76
76086;BME280;64791;0.000;0.000;2024-02-26T05:07:04;93310.78;;;4.74;72.86
76086;BME280;64791;0.000;0.000;2024-02-26T05:09:30;93309.09;;;4.71;72.93
76086;BME280;64791;0.000;0.000;2024-02-26T05:11:56;93310.91;;;4.69;73.04
76086;BME280;64791;0.000;0.000;2024-02-26T05:14:22;93320.66;;;4.64;73.02
76086;BME280;64791;0.000;0.000;2024-02-26T05:16:48;93308.78;;;4.62;73.05
76086;BME280;64791;0.000;0.000;2024-02-26T05:19:13;93321.28;;;4.57;73.20
76086;BME280;64791;0.000;0.000;2024-02-26T05:21:40;93312.13;;;4.55;73.42
76086;BME280;64791;0.000;0.000;2024-02-26T05:24:06;93313.91;;;4.52;73.09
76086;BME280;64791;0.000;0.000;2024-02-26T05:26:31;93315.16;;;4.51;73.34
76086;BME280;64791;0.000;0.000;2024-02-26T05:28:57;93315.38;;;4.53;73.17
76086;BME280;64791;0.000;0.000;2024-02-26T05:31:26;93321.59;;;4.54;73.13
76086;BME280;64791;0.000;0.000;2024-02-26T05:33:52;93327.25;;;4.56;73.17
76086;BME280;64791;0.000;0.000;2024-02-26T05:36:18;93317.78;;;4.57;73.13
76086;BME280;64791;0.000;0.000;2024-02-26T05:38:45;93331.88;;;4.61;73.11
76086;BME280;64791;0.000;0.000;2024-02-26T05:41:12;93338.81;;;4.62;73.18
76086;BME280;64791;0.000;0.000;2024-02-26T05:43:37;93337.78;;;4.65;72.97
76086;BME280;64791;0.000;0.000;2024-02-26T05:46:03;93334.72;;;4.68;72.85
76086;BME280;64791;0.000;0.000;2024-02-26T05:48:29;93335.69;;;4.71;72.69
76086;BME280;64791;0.000;0.000;2024-02-26T05:50:57;93335.16;;;4.72;72.95
76086;BME280;64791;0.000;0.000;2024-02-26T05:53:23;93348.69;;;4.78;72.95
76086;BME280;64791;0.000;0.000;2024-02-26T05:55:49;93345.69;;;4.81;72.85
76086;BME280;64791;0.000;0.000;2024-02-26T05:58:15;93352.84;;;4.84;72.76
76086;BME280;64791;0.000;0.000;2024-02-26T06:00:40;93351.28;;;4.89;72.69
76086;BME280;64791;0.000;0.000;2024-02-26T06:03:06;93358.63;;;4.94;72.77
76086;BME280;64791;0.000;0.000;2024-02-26T06:05:31;93348.13;;;4.98;72.28
76086;BME280;64791;0.000;0.000;2024-02-26T06:07:57;93359.41;;;5.07;71.98
76086;BME280;64791;0.000;0.000;2024-02-26T06:10:22;93362.44;;;5.17;71.52
76086;BME280;64791;0.000;0.000;2024-02-26T06:12:48;93368.44;;;5.29;71.62
76086;BME280;64791;0.000;0.000;2024-02-26T06:15:14;93364.22;;;5.41;71.01
76086;BME280;64791;0.000;0.000;2024-02-26T06:17:39;93364.00;;;5.52;70.54
76086;BME280;64791;0.000;0.000;2024-02-26T06:20:05;93364.63;;;5.58;70.13
76086;BME280;64791;0.000;0.000;2024-02-26T06:22:32;93368.38;;;5.68;69.66
76086;BME280;64791;0.000;0.000;2024-02-26T06:24:57;93367.94;;;5.77;69.54
76086;BME280;64791;0.000;0.000;2024-02-26T06:27:24;93366.78;;;5.85;69.16
76086;BME280;64791;0.000;0.000;2024-02-26T06:29:50;93363.59;;;5.94;69.27
76086;BME280;64791;0.000;0.000;2024-02-26T06:32:16;93359.69;;;6.03;69.17
76086;BME280;64791;0.000;0.000;2024-02-26T06:34:41;93356.28;;;6.10;69.14
76086;BME280;64791;0.000;0.000;2024-02-26T06:37:11;93364.38;;;6.16;69.40
76086;BME280;64791;0.000;0.000;2024-02-26T06:39:37;93353.50;;;6.23;69.39
76086;BME280;64791;0.000;0.000;2024-02-26T06:42:04;93358.84;;;6.29;69.14
76086;BME280;64791;0.000;0.000;2024-02-26T06:44:29;93352.72;;;6.36;68.72
76086;BME280;64791;0.000;0.000;2024-02-26T06:46:58;93356.25;;;6.44;68.38
76086;BME280;64791;0.000;0.000;2024-02-26T06:49:24;93354.84;;;6.50;68.53
76086;BME280;64791;0.000;0.000;2024-02-26T06:51:49;93356.94;;;6.57;68.13
76086;BME280;64791;0.000;0.000;2024-02-26T06:54:15;93360.25;;;6.63;67.62
76086;BME280;64791;0.000;0.000;2024-02-26T06:56:41;93358.84;;;6.70;67.41
76086;BME280;64791;0.000;0.000;2024-02-26T06:59:06;93358.91;;;6.78;67.48
76086;BME280;64791;0.000;0.000;2024-02-26T07:01:32;93356.78;;;6.84;67.38
76086;BME280;64791;0.000;0.000;2024-02-26T07:03:58;93357.56;;;6.92;67.03
76086;BME280;64791;0.000;0.000;2024-02-26T07:06:23;93360.34;;;6.99;67.93
76086;BME280;64791;0.000;0.000;2024-02-26T07:08:49;93359.69;;;7.06;67.21
76086;BME280;64791;0.000;0.000;2024-02-26T07:11:15;93352.78;;;7.13;67.18
76086;BME280;64791;0.000;0.000;2024-02-26T07:13:41;93361.03;;;7.20;66.69
76086;BME280;64791;0.000;0.000;2024-02-26T07:16:08;93369.38;;;7.28;67.08
76086;BME280;64791;0.000;0.000;2024-02-26T07:18:34;93364.31;;;7.39;66.94
76086;BME280;64791;0.000;0.000;2024-02-26T07:21:03;93379.00;;;7.49;66.58
76086;BME280;64791;0.000;0.000;2024-02-26T07:23:29;93373.22;;;7.61;66.67
76086;BME280;64791;0.000;0.000;2024-02-26T07:25:55;93370.88;;;7.72;66.62
76086;BME280;64791;0.000;0.000;2024-02-26T07:28:21;93370.56;;;7.83;67.00
76086;BME280;64791;0.000;0.000;2024-02-26T07:30:46;93374.25;;;7.93;66.69
76086;BME280;64791;0.000;0.000;2024-02-26T07:33:12;93374.31;;;8.01;66.59
76086;BME280;64791;0.000;0.000;2024-02-26T07:35:38;93374.53;;;8.10;66.84
76086;BME280;64791;0.000;0.000;2024-02-26T07:38:07;93367.78;;;8.19;66.99
76086;BME280;64791;0.000;0.000;2024-02-26T07:40:32;93370.53;;;8.26;67.25
76086;BME280;64791;0.000;0.000;2024-02-26T07:43:00;93373.84;;;8.33;66.68
76086;BME280;64791;0.000;0.000;2024-02-26T07:45:26;93381.00;;;8.43;67.12
76086;BME280;64791;0.000;0.000;2024-02-26T07:47:51;93372.81;;;8.51;66.38
76086;BME280;64791;0.000;0.000;2024-02-26T07:50:17;93374.47;;;8.61;66.57
76086;BME280;64791;0.000;0.000;2024-02-26T07:52:43;93371.75;;;8.76;66.43
76086;BME280;64791;0.000;0.000;2024-02-26T07:55:09;93371.75;;;8.91;65.89
76086;BME280;64791;0.000;0.000;2024-02-26T07:57:35;93381.13;;;9.11;66.09
76086;BME280;64791;0.000;0.000;2024-02-26T08:00:04;93374.16;;;9.33;65.70
76086;BME280;64791;0.000;0.000;2024-02-26T08:02:33;93373.56;;;9.49;65.81
76086;BME280;64791;0.000;0.000;2024-02-26T08:04:59;93378.13;;;9.62;65.80
76086;BME280;64791;0.000;0.000;2024-02-26T08:07:24;93371.47;;;9.72;65.31
76086;BME280;64791;0.000;0.000;2024-02-26T08:09:50;93367.41;;;9.81;65.02
76086;BME280;64791;0.000;0.000;2024-02-26T08:12:16;93366.50;;;9.86;65.60
76086;BME280;64791;0.000;0.000;2024-02-26T08:14:42;93365.72;;;9.93;65.10
76086;BME280;64791;0.000;0.000;2024-02-26T08:17:09;93370.66;;;10.02;65.25
76086;BME280;64791;0.000;0.000;2024-02-26T08:19:34;93366.03;;;10.12;64.93
76086;BME280;64791;0.000;0.000;2024-02-26T08:22:01;93366.91;;;10.22;65.26
76086;BME280;64791;0.000;0.000;2024-02-26T08:24:26;93358.00;;;10.39;64.86
76086;BME280;64791;0.000;0.000;2024-02-26T08:26:53;93368.88;;;10.69;64.66
76086;BME280;64791;0.000;0.000;2024-02-26T08:29:19;93362.81;;;10.95;63.74
76086;BME280;64791;0.000;0.000;2024-02-26T08:31:45;93359.53;;;11.14;63.98
76086;BME280;64791;0.000;0.000;2024-02-26T08:34:11;93353.88;;;11.29;63.54
76086;BME280;64791;0.000;0.000;2024-02-26T08:36:37;93352.13;;;11.41;63.55
76086;BME280;64791;0.000;0.000;2024-02-26T08:39:03;93348.00;;;11.50;63.27
76086;BME280;64791;0.000;0.000;2024-02-26T08:41:29;93349.22;;;11.56;63.12
76086;BME280;64791;0.000;0.000;2024-02-26T08:43:55;93352.63;;;11.64;62.88
76086;BME280;64791;0.000;0.000;2024-02-26T08:46:21;93354.19;;;11.75;62.97
76086;BME280;64791;0.000;0.000;2024-02-26T08:48:46;93358.31;;;11.83;62.80
76086;BME280;64791;0.000;0.000;2024-02-26T08:51:12;93350.03;;;12.00;62.43
76086;BME280;64791;0.000;0.000;2024-02-26T08:53:38;93357.44;;;12.15;62.43
76086;BME280;64791;0.000;0.000;2024-02-26T08:56:04;93356.50;;;12.30;62.02
76086;BME280;64791;0.000;0.000;2024-02-26T08:58:30;93358.03;;;12.40;61.85
76086;BME280;64791;0.000;0.000;2024-02-26T09:00:56;93348.66;;;12.53;61.86
76086;BME280;64791;0.000;0.000;2024-02-26T09:03:22;93355.16;;;12.74;61.49
76086;BME280;64791;0.000;0.000;2024-02-26T09:05:48;93352.66;;;12.96;61.37
76086;BME280;64791;0.000;0.000;2024-02-26T09:08:14;93349.22;;;13.24;60.72
76086;BME280;64791;0.000;0.000;2024-02-26T09:10:41;93350.22;;;13.55;59.81
76086;BME280;64791;0.000;0.000;2024-02-26T09:13:07;93348.50;;;13.79;59.18
76086;BME280;64791;0.000;0.000;2024-02-26T09:15:33;93353.47;;;14.18;58.68
76086;BME280;64791;0.000;0.000;2024-02-26T09:17:59;93352.13;;;14.58;58.36
76086;BME280;64791;0.000;0.000;2024-02-26T09:20:25;93349.78;;;14.73;58.04
76086;BME280;64791;0.000;0.000;2024-02-26T09:22:51;93350.19;;;14.79;57.61
76086;BME280;64791;0.000;0.000;2024-02-26T09:25:17;93349.28;;;14.86;57.35
76086;BME280;64791;0.000;0.000;2024-02-26T09:27:44;93344.88;;;14.93;56.71
76086;BME280;64791;0.000;0.000;2024-02-26T09:30:13;93340.63;;;15.01;56.96
76086;BME280;64791;0.000;0.000;2024-02-26T09:32:39;93342.91;;;15.15;56.42
76086;BME280;64791;0.000;0.000;2024-02-26T09:35:05;93331.47;;;15.20;56.41
76086;BME280;64791;0.000;0.000;2024-02-26T09:37:31;93334.66;;;15.26;56.43
76086;BME280;64791;0.000;0.000;2024-02-26T09:39:59;93336.38;;;15.31;56.47
76086;BME280;64791;0.000;0.000;2024-02-26T09:42:27;93329.06;;;15.36;55.94
76086;BME280;64791;0.000;0.000;2024-02-26T09:44:56;93330.94;;;15.43;56.34
76086;BME280;64791;0.000;0.000;2024-02-26T09:47:25;93326.47;;;15.49;55.81
76086;BME280;64791;0.000;0.000;2024-02-26T09:49:52;93330.41;;;15.56;55.63
76086;BME280;64791;0.000;0.000;2024-02-26T09:52:19;93322.81;;;15.56;55.42
76086;BME280;64791;0.000;0.000;2024-02-26T09:54:47;93331.41;;;15.60;55.49
76086;BME280;64791;0.000;0.000;2024-02-26T09:57:14;93327.31;;;15.61;55.38
76086;BME280;64791;0.000;0.000;2024-02-26T09:59:42;93333.88;;;15.66;55.81
76086;BME280;64791;0.000;0.000;2024-02-26T10:02:11;93331.97;;;15.68;55.33
76086;BME280;64791;0.000;0.000;2024-02-26T10:04:38;93321.81;;;15.73;55.30
76086;BME280;64791;0.000;0.000;2024-02-26T10:07:05;93320.03;;;15.77;55.29
76086;BME280;64791;0.000;0.000;2024-02-26T10:09:35;93321.03;;;15.82;55.82
76086;BME280;64791;0.000;0.000;2024-02-26T10:12:01;93313.19;;;15.90;55.75
76086;BME280;64791;0.000;0.000;2024-02-26T10:14:27;93314.31;;;15.97;55.78
76086;BME280;64791;0.000;0.000;2024-02-26T10:16:53;93308.19;;;15.98;55.62
76086;BME280;64791;0.000;0.000;2024-02-26T10:19:28;93302.13;;;16.02;54.92
76086;BME280;64791;0.000;0.000;2024-02-26T10:21:58;93298.88;;;16.05;54.66
76086;BME280;64791;0.000;0.000;2024-02-26T10:24:24;93291.06;;;16.13;54.72
76086;BME280;64791;0.000;0.000;2024-02-26T10:26:51;93292.63;;;16.16;53.48
76086;BME280;64791;0.000;0.000;2024-02-26T10:29:20;93290.72;;;16.19;53.39
76086;BME280;64791;0.000;0.000;2024-02-26T10:31:46;93293.19;;;16.24;53.26
76086;BME280;64791;0.000;0.000;2024-02-26T10:34:12;93284.59;;;16.32;53.10
76086;BME280;64791;0.000;0.000;2024-02-26T10:36:38;93278.09;;;16.39;52.69
76086;BME280;64791;0.000;0.000;2024-02-26T10:39:07;93281.38;;;16.47;52.71
76086;BME280;64791;0.000;0.000;2024-02-26T10:41:33;93286.03;;;16.54;52.34
76086;BME280;64791;0.000;0.000;2024-02-26T10:43:59;93285.03;;;16.61;52.19
76086;BME280;64791;0.000;0.000;2024-02-26T10:46:25;93276.72;;;16.73;52.63
76086;BME280;64791;0.000;0.000;2024-02-26T10:48:52;93283.16;;;16.75;51.18
76086;BME280;64791;0.000;0.000;2024-02-26T10:51:22;93283.50;;;16.81;51.70
76086;BME280;64791;0.000;0.000;2024-02-26T10:53:51;93269.81;;;16.85;51.60
76086;BME280;64791;0.000;0.000;2024-02-26T10:56:22;93280.25;;;16.96;51.23
76086;BME280;64791;0.000;0.000;2024-02-26T10:58:51;93268.25;;;17.05;51.25
76086;BME280;64791;0.000;0.000;2024-02-26T11:01:18;93270.09;;;17.12;51.63
76086;BME280;64791;0.000;0.000;2024-02-26T11:03:44;93269.44;;;17.25;51.31
76086;BME280;64791;0.000;0.000;2024-02-26T11:06:10;93268.72;;;17.36;51.60
76086;BME280;64791;0.000;0.000;2024-02-26T11:08:39;93270.06;;;17.47;51.71
76086;BME280;64791;0.000;0.000;2024-02-26T11:11:05;93269.19;;;17.56;50.54
76086;BME280;64791;0.000;0.000;2024-02-26T11:13:31;93268.84;;;17.62;50.92
76086;BME280;64791;0.000;0.000;2024-02-26T11:15:57;93263.00;;;17.69;51.00
76086;BME280;64791;0.000;0.000;2024-02-26T11:18:23;93269.03;;;17.77;50.19
76086;BME280;64791;0.000;0.000;2024-02-26T11:20:48;93259.16;;;17.88;49.81
76086;BME280;64791;0.000;0.000;2024-02-26T11:23:14;93260.97;;;17.95;49.59
76086;BME280;64791;0.000;0.000;2024-02-26T11:25:40;93259.66;;;17.96;49.33
76086;BME280;64791;0.000;0.000;2024-02-26T11:28:11;93256.34;;;17.99;49.49
76086;BME280;64791;0.000;0.000;2024-02-26T11:30:38;93258.63;;;18.03;49.13
76086;BME280;64791;0.000;0.000;2024-02-26T11:33:09;93259.34;;;18.03;49.46
76086;BME280;64791;0.000;0.000;2024-02-26T11:35:38;93252.44;;;18.04;49.15
76086;BME280;64791;0.000;0.000;2024-02-26T11:38:04;93257.41;;;18.06;48.79
76086;BME280;64791;0.000;0.000;2024-02-26T11:40:32;93253.66;;;18.01;48.41
76086;BME280;64791;0.000;0.000;2024-02-26T11:42:57;93253.56;;;17.99;49.03
76086;BME280;64791;0.000;0.000;2024-02-26T11:48:05;93248.94;;;18.04;49.04
76086;BME280;64791;0.000;0.000;2024-02-26T11:50:38;93248.94;;;18.04;49.18
76086;BME280;64791;0.000;0.000;2024-02-26T11:55:46;93253.41;;;18.09;48.94
76086;BME280;64791;0.000;0.000;2024-02-26T11:58:11;93259.69;;;18.09;47.91
76086;BME280;64791;0.000;0.000;2024-02-26T12:00:39;93251.22;;;18.07;47.62
76086;BME280;64791;0.000;0.000;2024-02-26T12:03:05;93252.69;;;18.08;47.67
76086;BME280;64791;0.000;0.000;2024-02-26T12:05:36;93250.84;;;18.13;47.92
76086;BME280;64791;0.000;0.000;2024-02-26T12:08:04;93249.59;;;18.16;48.15
76086;BME280;64791;0.000;0.000;2024-02-26T12:13:05;93250.41;;;18.30;47.72
76086;BME280;64791;0.000;0.000;2024-02-26T12:15:36;93244.66;;;18.40;47.29
76086;BME280;64791;0.000;0.000;2024-02-26T12:18:03;93240.34;;;18.50;47.04
76086;BME280;64791;0.000;0.000;2024-02-26T12:20:30;93244.59;;;18.51;47.00
76086;BME280;64791;0.000;0.000;2024-02-26T12:22:56;93239.34;;;18.57;47.04
76086;BME280;64791;0.000;0.000;2024-02-26T12:25:23;93241.00;;;18.62;47.43
76086;BME280;64791;0.000;0.000;2024-02-26T12:27:51;93242.88;;;18.71;47.53
76086;BME280;64791;0.000;0.000;2024-02-26T12:30:17;93248.19;;;18.79;46.85
76086;BME280;64791;0.000;0.000;2024-02-26T12:32:47;93245.81;;;18.87;47.08
76086;BME280;64791;0.000;0.000;2024-02-26T12:35:14;93238.25;;;18.89;45.89
76086;BME280;64791;0.000;0.000;2024-02-26T12:37:41;93248.53;;;18.99;45.69
76086;BME280;64791;0.000;0.000;2024-02-26T12:40:08;93244.19;;;19.09;45.84
76086;BME280;64791;0.000;0.000;2024-02-26T12:42:37;93250.19;;;19.17;45.20
76086;BME280;64791;0.000;0.000;2024-02-26T12:45:09;93246.59;;;19.28;45.39
76086;BME280;64791;0.000;0.000;2024-02-26T12:47:38;93249.16;;;19.51;44.68
76086;BME280;64791;0.000;0.000;2024-02-26T12:50:04;93247.41;;;19.72;44.11
76086;BME280;64791;0.000;0.000;2024-02-26T12:52:31;93245.09;;;19.82;44.77
76086;BME280;64791;0.000;0.000;2024-02-26T12:54:56;93244.34;;;19.95;44.67
76086;BME280;64791;0.000;0.000;2024-02-26T12:57:22;93236.41;;;20.18;44.49
76086;BME280;64791;0.000;0.000;2024-02-26T12:59:49;93238.41;;;20.45;44.16
76086;BME280;64791;0.000;0.000;2024-02-26T13:02:15;93238.31;;;20.59;43.69
76086;BME280;64791;0.000;0.000;2024-02-26T13:04:41;93245.94;;;20.72;44.28
76086;BME280;64791;0.000;0.000;2024-02-26T13:07:07;93242.69;;;20.77;43.29
76086;BME280;64791;0.000;0.000;2024-02-26T13:09:33;93241.88;;;20.75;42.91
76086;BME280;64791;0.000;0.000;2024-02-26T13:12:06;93239.31;;;20.65;43.22
76086;BME280;64791;0.000;0.000;2024-02-26T13:14:32;93241.66;;;20.55;42.96
76086;BME280;64791;0.000;0.000;2024-02-26T13:16:59;93238.41;;;20.45;43.17
76086;BME280;64791;0.000;0.000;2024-02-26T13:19:25;93245.78;;;20.38;42.78
76086;BME280;64791;0.000;0.000;2024-02-26T13:21:52;93234.19;;;20.30;42.61